Time;durP1;ratioP1;P1;durP2;ratioP2;P2;SDS_P1;SDS_P2;PMS_P1;PMS_P2;Temp;Humidity;BMP_temperature;BMP_pressure;BME280_temperature;BME280_humidity;BME280_pressure;Samples;Min_cycle;Max_cycle;Signal;HPM_P1;HPM_P2
2023/03/16 00:00:02;;;;;;;7.35;3.70;;;-1.20;86.90;;;;;;5050358;28;20042;-64
2023/03/16 00:02:28;;;;;;;7.28;4.57;;;-1.10;86.40;;;;;;5060407;28;20451;-64
2023/03/16 00:04:54;;;;;;;6.88;3.83;;;-1.10;86.90;;;;;;5056781;28;20037;-65
2023/03/16 00:07:20;;;;;;;8.65;4.13;;;-1.20;86.70;;;;;;5066029;28;20032;-64
2023/03/16 00:09:46;;;;;;;7.60;3.88;;;-1.10;86.60;;;;;;5052805;28;20318;-64
2023/03/16 00:12:14;;;;;;;7.90;4.35;;;-1.10;87.10;;;;;;5053608;28;20036;-64
2023/03/16 00:14:45;;;;;;;6.88;4.13;;;-1.10;86.60;;;;;;5056231;28;20033;-64
2023/03/16 00:17:18;;;;;;;8.02;3.50;;;-1.10;87.40;;;;;;5064466;28;20028;-64
2023/03/16 00:19:50;;;;;;;7.10;3.90;;;-1.10;87.20;;;;;;5069454;28;20391;-64
2023/03/16 00:22:16;;;;;;;8.57;5.03;;;-1.10;87.10;;;;;;5068585;28;20111;-64
2023/03/16 00:24:42;;;;;;;8.77;4.32;;;-1.00;87.60;;;;;;5058373;28;20128;-64
2023/03/16 00:27:13;;;;;;;9.25;4.88;;;-0.90;87.90;;;;;;5073319;28;20476;-64
2023/03/16 00:29:46;;;;;;;11.13;5.20;;;-0.90;88.60;;;;;;5070931;28;20092;-64
2023/03/16 00:32:17;;;;;;;10.70;5.78;;;-0.90;87.90;;;;;;5068745;28;20032;-65
2023/03/16 00:34:43;;;;;;;9.23;5.50;;;-0.70;87.90;;;;;;5041388;28;20368;-64
2023/03/16 00:37:12;;;;;;;8.88;4.85;;;-0.50;88.90;;;;;;5056320;28;20104;-64
2023/03/16 00:39:39;;;;;;;11.60;5.90;;;-0.30;90.30;;;;;;5068174;28;20024;-64
2023/03/16 00:42:05;;;;;;;10.13;6.55;;;-0.20;91.50;;;;;;5070073;28;20386;-64
2023/03/16 00:44:30;;;;;;;12.35;7.30;;;-0.20;91.60;;;;;;5064981;28;20045;-64
2023/03/16 00:46:56;;;;;;;11.50;7.20;;;-0.10;90.10;;;;;;5058785;28;20028;-64
2023/03/16 00:49:21;;;;;;;16.70;9.43;;;0.00;90.10;;;;;;5062405;28;20032;-64
2023/03/16 00:51:47;;;;;;;16.90;10.82;;;0.20;89.90;;;;;;5058856;28;20032;-64
2023/03/16 00:54:12;;;;;;;19.92;12.13;;;0.20;89.40;;;;;;5065399;28;20054;-64
2023/03/16 00:56:38;;;;;;;18.38;11.75;;;0.20;89.80;;;;;;5060217;28;20075;-64
2023/03/16 00:59:04;;;;;;;15.38;10.55;;;0.20;88.70;;;;;;5054986;28;20108;-65
2023/03/16 01:01:33;;;;;;;16.95;11.38;;;0.30;88.70;;;;;;5062986;28;20051;-64
2023/03/16 01:03:59;;;;;;;16.23;11.02;;;0.30;88.90;;;;;;5074297;28;20150;-64
2023/03/16 01:06:25;;;;;;;20.23;11.27;;;0.30;90.20;;;;;;5069647;28;20365;-64
2023/03/16 01:08:51;;;;;;;19.52;13.27;;;0.30;89.80;;;;;;5052655;28;20026;-64
2023/03/16 01:11:21;;;;;;;19.92;13.35;;;0.30;89.70;;;;;;5063610;28;20032;-64
2023/03/16 01:13:48;;;;;;;24.15;14.88;;;0.20;89.20;;;;;;5074968;28;20016;-64
2023/03/16 01:16:22;;;;;;;25.90;15.85;;;0.20;89.10;;;;;;5068250;28;20032;-64
2023/03/16 01:18:48;;;;;;;26.23;14.55;;;0.20;87.20;;;;;;5053095;28;20449;-64
2023/03/16 01:21:15;;;;;;;23.95;15.90;;;0.20;87.80;;;;;;5068563;28;20372;-64
2023/03/16 01:23:42;;;;;;;23.80;15.15;;;0.20;88.00;;;;;;5071236;28;20025;-64
2023/03/16 01:26:08;;;;;;;24.42;14.98;;;0.20;88.20;;;;;;5059622;28;20033;-63
2023/03/16 01:28:34;;;;;;;24.42;14.77;;;0.20;88.50;;;;;;5071103;28;20322;-63
2023/03/16 01:31:13;;;;;;;19.20;14.43;;;0.20;88.80;;;;;;5075020;28;20031;-64
2023/03/16 01:33:40;;;;;;;19.75;14.02;;;0.20;89.50;;;;;;5075722;28;20441;-66
2023/03/16 01:36:11;;;;;;;20.67;13.80;;;0.20;89.50;;;;;;5077857;28;20020;-65
2023/03/16 01:38:37;;;;;;;20.02;14.07;;;0.30;90.10;;;;;;5066205;28;20508;-65
2023/03/16 01:41:04;;;;;;;18.88;12.55;;;0.30;90.70;;;;;;5074728;28;20108;-64
2023/03/16 01:43:32;;;;;;;21.80;12.90;;;0.30;91.30;;;;;;5048781;28;20035;-64
2023/03/16 01:46:06;;;;;;;18.55;11.57;;;0.30;91.40;;;;;;5065614;28;20025;-64
2023/03/16 01:48:54;;;;;;;16.23;11.27;;;0.50;92.70;;;;;;5062512;28;20032;-64
2023/03/16 01:51:45;;;;;;;18.63;12.57;;;0.50;93.20;;;;;;5059159;28;20036;-64
2023/03/16 01:54:39;;;;;;;18.63;12.43;;;0.50;93.60;;;;;;5061978;28;20467;-64
2023/03/16 01:57:18;;;;;;;18.63;12.23;;;0.50;93.50;;;;;;5065262;28;20032;-64
2023/03/16 01:59:53;;;;;;;22.05;12.35;;;0.40;93.20;;;;;;5053827;28;20033;-64
2023/03/16 02:02:22;;;;;;;19.17;13.07;;;0.50;93.50;;;;;;5063001;28;20017;-63
2023/03/16 02:05:05;;;;;;;17.85;12.40;;;0.50;93.60;;;;;;5075167;28;20017;-64
2023/03/16 02:07:34;;;;;;;19.85;12.75;;;0.50;93.40;;;;;;5039444;28;20068;-64
2023/03/16 02:10:01;;;;;;;19.08;12.90;;;0.40;93.10;;;;;;5056405;28;20417;-64
2023/03/16 02:12:28;;;;;;;18.88;12.23;;;0.40;92.80;;;;;;5073907;28;20040;-64
2023/03/16 02:14:53;;;;;;;22.10;13.38;;;0.40;93.40;;;;;;5072753;28;20368;-64
2023/03/16 02:17:28;;;;;;;21.00;12.35;;;0.40;93.70;;;;;;5070269;28;20037;-64
2023/03/16 02:20:01;;;;;;;18.13;12.25;;;0.40;93.90;;;;;;5064169;28;20056;-63
2023/03/16 02:22:27;;;;;;;16.10;11.70;;;0.40;93.50;;;;;;5043154;28;20422;-63
2023/03/16 02:24:53;;;;;;;17.00;11.77;;;0.40;94.10;;;;;;5058785;28;20425;-63
2023/03/16 02:27:56;;;;;;;16.48;12.10;;;0.40;94.30;;;;;;5071699;28;20047;-64
2023/03/16 02:30:22;;;;;;;18.50;11.30;;;0.40;94.30;;;;;;5049645;28;20108;-63
2023/03/16 02:32:51;;;;;;;18.23;11.55;;;0.40;94.50;;;;;;5049625;28;20116;-63
2023/03/16 02:35:18;;;;;;;17.35;11.82;;;0.40;94.50;;;;;;5052863;28;20025;-63
2023/03/16 02:37:43;;;;;;;19.17;12.25;;;0.40;94.20;;;;;;5058910;28;21811;-63
2023/03/16 02:40:22;;;;;;;15.98;11.20;;;0.40;94.60;;;;;;5072912;28;20096;-63
2023/03/16 02:43:01;;;;;;;17.27;11.32;;;0.40;94.30;;;;;;5063506;28;20111;-63
2023/03/16 02:45:38;;;;;;;21.17;11.38;;;0.40;94.30;;;;;;5056803;28;20051;-63
2023/03/16 02:48:13;;;;;;;16.80;11.30;;;0.40;94.40;;;;;;5063795;28;20043;-63
2023/03/16 02:50:46;;;;;;;18.80;11.00;;;0.50;94.50;;;;;;5057773;28;20025;-63
2023/03/16 02:53:15;;;;;;;16.85;10.50;;;0.50;94.50;;;;;;5052236;28;20079;-62
2023/03/16 02:55:40;;;;;;;15.60;10.23;;;0.40;94.20;;;;;;5074924;28;20039;-63
2023/03/16 02:58:06;;;;;;;16.60;10.20;;;0.40;94.40;;;;;;5058189;28;20538;-63
2023/03/16 03:00:31;;;;;;;17.02;10.00;;;0.40;94.20;;;;;;5052678;28;20124;-63
2023/03/16 03:02:58;;;;;;;13.63;9.43;;;0.40;94.00;;;;;;5049237;28;20025;-63
2023/03/16 03:05:23;;;;;;;15.05;9.57;;;0.40;94.60;;;;;;5050857;28;20056;-63
2023/03/16 03:07:50;;;;;;;13.55;9.13;;;0.50;95.40;;;;;;5057342;28;21851;-63
2023/03/16 03:10:15;;;;;;;14.45;9.55;;;0.40;95.80;;;;;;5058417;28;20040;-63
2023/03/16 03:12:41;;;;;;;15.13;9.50;;;0.40;96.20;;;;;;5050224;28;20120;-63
2023/03/16 03:15:07;;;;;;;15.32;9.50;;;0.40;96.20;;;;;;5062783;28;20385;-63
2023/03/16 03:17:33;;;;;;;16.17;9.07;;;0.40;96.50;;;;;;5054184;28;20103;-63
2023/03/16 03:20:01;;;;;;;12.88;8.35;;;0.40;96.60;;;;;;5071310;28;20025;-63
2023/03/16 03:22:27;;;;;;;13.00;9.32;;;0.40;96.70;;;;;;5049228;28;20077;-63
2023/03/16 03:24:52;;;;;;;14.63;8.80;;;0.40;96.20;;;;;;5066282;28;20029;-63
2023/03/16 03:27:21;;;;;;;14.38;10.05;;;0.50;96.20;;;;;;5052615;28;20380;-63
2023/03/16 03:29:46;;;;;;;15.85;9.13;;;0.50;96.40;;;;;;5047232;28;20032;-63
2023/03/16 03:32:14;;;;;;;16.77;9.38;;;0.50;96.30;;;;;;5043294;28;20029;-63
2023/03/16 03:34:41;;;;;;;13.88;8.93;;;0.50;96.20;;;;;;5042799;28;20032;-63
2023/03/16 03:37:07;;;;;;;13.88;9.63;;;0.60;96.80;;;;;;5057140;28;20029;-63
2023/03/16 03:39:32;;;;;;;13.02;8.70;;;0.60;96.50;;;;;;5065292;28;20028;-63
2023/03/16 03:41:58;;;;;;;12.63;8.85;;;0.50;96.30;;;;;;5064003;28;20669;-63
2023/03/16 03:44:24;;;;;;;16.02;9.48;;;0.50;97.10;;;;;;5052739;28;20037;-63
2023/03/16 03:46:50;;;;;;;20.08;9.68;;;0.50;97.40;;;;;;5056992;28;20025;-63
2023/03/16 03:49:16;;;;;;;13.23;9.13;;;0.50;97.40;;;;;;5051353;28;20043;-63
2023/03/16 03:51:45;;;;;;;14.05;9.18;;;0.50;97.50;;;;;;5054668;28;20381;-63
2023/03/16 03:54:11;;;;;;;13.95;9.15;;;0.50;97.50;;;;;;5052014;28;20120;-63
2023/03/16 03:56:37;;;;;;;16.27;10.30;;;0.50;97.30;;;;;;5065657;28;20457;-63
2023/03/16 03:59:02;;;;;;;14.68;10.00;;;0.40;97.10;;;;;;5047801;28;20430;-63
2023/03/16 04:01:28;;;;;;;15.50;10.48;;;0.40;96.50;;;;;;5047320;28;20053;-63
2023/03/16 04:03:53;;;;;;;15.85;10.65;;;0.40;96.70;;;;;;5054074;28;20025;-63
2023/03/16 04:06:19;;;;;;;18.95;10.90;;;0.40;96.70;;;;;;5064464;28;20017;-63
2023/03/16 04:08:44;;;;;;;17.92;10.88;;;0.40;96.50;;;;;;5054245;28;20115;-63
2023/03/16 04:11:10;;;;;;;13.43;9.93;;;0.40;96.20;;;;;;5047398;28;20017;-63
2023/03/16 04:13:36;;;;;;;20.30;10.52;;;0.40;96.60;;;;;;5055010;28;20025;-63
2023/03/16 04:16:02;;;;;;;16.50;11.73;;;0.40;97.10;;;;;;5056001;28;20513;-63
2023/03/16 04:18:29;;;;;;;15.15;9.60;;;0.40;96.90;;;;;;5042041;28;20038;-63
2023/03/16 04:20:55;;;;;;;13.70;9.05;;;0.40;97.40;;;;;;5053203;28;20013;-62
2023/03/16 04:23:21;;;;;;;16.02;9.82;;;0.40;97.60;;;;;;5052923;28;20083;-62
2023/03/16 04:25:47;;;;;;;13.23;9.45;;;0.30;97.40;;;;;;5033496;28;20414;-63
2023/03/16 04:28:16;;;;;;;15.70;10.02;;;0.30;97.80;;;;;;5055670;28;20031;-65
2023/03/16 04:30:42;;;;;;;11.98;8.27;;;0.30;98.00;;;;;;5066680;28;20422;-64
2023/03/16 04:33:07;;;;;;;12.45;8.45;;;0.30;98.00;;;;;;5050853;28;20033;-61
2023/03/16 04:35:33;;;;;;;14.07;8.18;;;0.30;98.00;;;;;;5049525;28;20036;-62
2023/03/16 04:37:58;;;;;;;15.38;8.98;;;0.30;98.00;;;;;;5052972;28;20107;-62
2023/03/16 04:40:24;;;;;;;12.05;8.70;;;0.30;98.00;;;;;;5056917;28;20032;-62
2023/03/16 04:42:50;;;;;;;15.30;9.73;;;0.20;98.00;;;;;;5051599;28;20467;-63
2023/03/16 04:45:18;;;;;;;13.65;9.05;;;0.20;98.00;;;;;;5052976;28;20040;-63
2023/03/16 04:47:44;;;;;;;11.32;8.02;;;0.20;98.00;;;;;;5055565;28;20570;-63
2023/03/16 04:50:11;;;;;;;13.80;9.32;;;0.20;98.00;;;;;;5041865;28;20109;-63
2023/03/16 04:52:37;;;;;;;14.32;8.73;;;0.20;98.00;;;;;;5045763;28;20839;-63
2023/03/16 04:55:03;;;;;;;14.38;9.02;;;0.20;98.00;;;;;;5053618;28;20423;-63
2023/03/16 04:57:29;;;;;;;13.07;8.25;;;0.20;98.00;;;;;;5051112;28;20103;-63
2023/03/16 04:59:54;;;;;;;14.48;8.80;;;0.20;98.00;;;;;;5015539;28;1088261;-63
2023/03/16 05:02:20;;;;;;;13.05;9.05;;;0.30;98.00;;;;;;5055452;28;20036;-63
2023/03/16 05:04:46;;;;;;;15.75;9.57;;;0.30;98.00;;;;;;5052971;28;20017;-63
2023/03/16 05:07:12;;;;;;;13.90;8.77;;;0.20;98.00;;;;;;5052045;28;20373;-63
2023/03/16 05:09:38;;;;;;;13.13;8.85;;;0.20;98.00;;;;;;5064910;28;20025;-63
2023/03/16 05:12:04;;;;;;;14.65;8.75;;;0.20;98.00;;;;;;5048019;28;20037;-62
2023/03/16 05:14:29;;;;;;;13.95;9.02;;;0.20;98.00;;;;;;5051105;28;20033;-63
2023/03/16 05:16:55;;;;;;;11.45;8.48;;;0.20;98.00;;;;;;5040984;28;20044;-62
2023/03/16 05:19:21;;;;;;;12.55;8.65;;;0.20;98.00;;;;;;5054467;28;20080;-63
2023/03/16 05:21:47;;;;;;;14.20;8.65;;;0.20;98.00;;;;;;5054525;28;20083;-63
2023/03/16 05:24:15;;;;;;;13.65;9.02;;;0.20;98.00;;;;;;5052236;28;20029;-63
2023/03/16 05:26:40;;;;;;;14.50;9.02;;;0.20;98.00;;;;;;5034839;28;20036;-62
2023/03/16 05:29:06;;;;;;;13.50;8.40;;;0.20;98.00;;;;;;5050872;28;20104;-63
2023/03/16 05:31:32;;;;;;;15.43;9.40;;;0.20;97.80;;;;;;5054345;28;20060;-62
2023/03/16 05:33:57;;;;;;;15.88;10.43;;;0.20;97.30;;;;;;5054548;28;20025;-63
2023/03/16 05:36:23;;;;;;;14.95;9.55;;;0.20;97.00;;;;;;5047069;28;20091;-62
2023/03/16 05:38:50;;;;;;;25.95;13.23;;;0.10;96.70;;;;;;5045031;28;20322;-63
2023/03/16 05:41:17;;;;;;;18.02;10.38;;;0.10;96.50;;;;;;5053558;28;20057;-63
2023/03/16 05:43:46;;;;;;;19.58;11.98;;;0.20;96.60;;;;;;5051319;28;20029;-62
2023/03/16 05:46:12;;;;;;;19.13;10.27;;;0.20;96.40;;;;;;5051121;28;20060;-62
2023/03/16 05:48:38;;;;;;;15.48;9.82;;;0.10;96.50;;;;;;5054111;28;20028;-62
2023/03/16 05:51:04;;;;;;;16.88;9.65;;;0.20;96.90;;;;;;5054260;28;20028;-63
2023/03/16 05:53:31;;;;;;;15.98;9.95;;;0.20;97.20;;;;;;5055009;28;20025;-62
2023/03/16 05:55:57;;;;;;;17.15;10.73;;;0.20;97.20;;;;;;5053825;28;20021;-62
2023/03/16 05:58:23;;;;;;;17.45;10.25;;;0.20;97.30;;;;;;5046429;28;20029;-62
2023/03/16 06:00:51;;;;;;;15.02;9.55;;;0.30;97.60;;;;;;5041695;28;20037;-62
2023/03/16 06:03:17;;;;;;;14.38;9.18;;;0.30;97.70;;;;;;5055045;28;20037;-63
2023/03/16 06:05:42;;;;;;;14.32;9.77;;;0.30;98.00;;;;;;5055946;28;20032;-63
2023/03/16 06:08:08;;;;;;;16.75;10.20;;;0.30;97.70;;;;;;5056157;28;20481;-62
2023/03/16 06:10:37;;;;;;;19.33;10.35;;;0.30;97.50;;;;;;5056405;28;20031;-62
2023/03/16 06:13:04;;;;;;;17.00;10.80;;;0.40;97.60;;;;;;5056366;28;20426;-63
2023/03/16 06:15:30;;;;;;;16.95;11.18;;;0.40;97.90;;;;;;5052680;28;20515;-62
2023/03/16 06:17:56;;;;;;;15.98;11.10;;;0.40;97.70;;;;;;5053175;28;20032;-63
2023/03/16 06:20:21;;;;;;;18.45;11.00;;;0.40;97.90;;;;;;5058273;28;20410;-63
2023/03/16 06:22:47;;;;;;;18.67;11.63;;;0.50;98.00;;;;;;5058301;28;20029;-62
2023/03/16 06:25:14;;;;;;;20.20;12.10;;;0.50;98.00;;;;;;5057624;28;20483;-62
2023/03/16 06:27:40;;;;;;;19.02;12.30;;;0.50;98.00;;;;;;5056946;28;20052;-62
2023/03/16 06:30:08;;;;;;;16.20;11.07;;;0.60;98.00;;;;;;5058029;28;20140;-62
2023/03/16 06:32:35;;;;;;;18.95;10.93;;;0.70;98.00;;;;;;5056058;28;20036;-62
2023/03/16 06:35:02;;;;;;;18.63;10.05;;;0.70;98.00;;;;;;5057999;28;20041;-62
2023/03/16 06:37:28;;;;;;;17.25;11.18;;;0.80;98.00;;;;;;5057936;28;20078;-62
2023/03/16 06:39:54;;;;;;;16.38;10.15;;;0.90;98.00;;;;;;5058076;28;20029;-62
2023/03/16 06:42:19;;;;;;;18.13;10.48;;;1.00;98.00;;;;;;5056643;28;20433;-62
2023/03/16 06:44:45;;;;;;;15.98;9.43;;;1.10;98.00;;;;;;5066306;28;20025;-63
2023/03/16 06:47:10;;;;;;;14.30;9.52;;;1.20;98.00;;;;;;5047590;28;20048;-62
2023/03/16 06:49:36;;;;;;;14.60;9.40;;;1.20;98.00;;;;;;5056716;28;20028;-62
2023/03/16 06:52:02;;;;;;;13.80;8.85;;;1.30;98.00;;;;;;5039975;28;20384;-61
2023/03/16 06:54:28;;;;;;;17.08;9.25;;;1.30;98.00;;;;;;5057446;28;20021;-61
2023/03/16 06:56:54;;;;;;;16.15;9.98;;;1.50;98.00;;;;;;5050687;28;20064;-63
2023/03/16 06:59:20;;;;;;;14.68;8.77;;;1.50;98.00;;;;;;5052510;28;20052;-62
2023/03/16 07:01:46;;;;;;;12.95;8.50;;;1.60;98.00;;;;;;5045873;28;20045;-61
2023/03/16 07:04:12;;;;;;;12.68;7.53;;;1.70;98.00;;;;;;5054535;28;20154;-62
2023/03/16 07:06:37;;;;;;;14.63;8.60;;;1.80;98.00;;;;;;5055636;28;20096;-62
2023/03/16 07:09:03;;;;;;;11.52;7.72;;;1.90;98.00;;;;;;5056375;28;20437;-62
2023/03/16 07:11:29;;;;;;;13.48;8.32;;;2.00;98.00;;;;;;5056643;28;20090;-61
2023/03/16 07:13:57;;;;;;;14.80;8.63;;;2.10;98.00;;;;;;5053120;28;20071;-61
2023/03/16 07:16:23;;;;;;;14.45;8.00;;;2.20;98.00;;;;;;5046218;28;20059;-61
2023/03/16 07:18:49;;;;;;;13.07;7.88;;;2.20;98.00;;;;;;5055016;28;20033;-61
2023/03/16 07:21:15;;;;;;;12.85;6.78;;;2.30;98.00;;;;;;5056833;28;20017;-61
2023/03/16 07:23:40;;;;;;;11.43;6.70;;;2.30;98.00;;;;;;5054495;28;20290;-62
2023/03/16 07:26:07;;;;;;;10.75;6.50;;;2.40;97.60;;;;;;5053796;28;20064;-63
2023/03/16 07:28:33;;;;;;;9.85;6.65;;;2.50;97.40;;;;;;5042838;28;20052;-63
2023/03/16 07:31:02;;;;;;;11.52;7.20;;;2.60;96.90;;;;;;5045775;28;20044;-63
2023/03/16 07:33:27;;;;;;;11.63;6.35;;;2.80;96.60;;;;;;5055019;28;20036;-63
2023/03/16 07:35:53;;;;;;;9.70;5.85;;;2.90;96.20;;;;;;5052764;28;20167;-63
2023/03/16 07:38:20;;;;;;;9.35;6.40;;;2.90;95.80;;;;;;5044540;28;20039;-63
2023/03/16 07:40:45;;;;;;;9.02;5.72;;;3.00;95.50;;;;;;5049357;28;20292;-62
2023/03/16 07:43:11;;;;;;;22.63;10.13;;;3.10;95.40;;;;;;5043100;28;20048;-62
2023/03/16 07:45:36;;;;;;;74.70;31.73;;;3.30;94.90;;;;;;5053451;28;20017;-63
2023/03/16 07:48:02;;;;;;;17.63;9.05;;;3.40;94.90;;;;;;5053324;28;20036;-63
2023/03/16 07:50:27;;;;;;;33.47;14.70;;;3.50;94.00;;;;;;5034917;28;20028;-62
2023/03/16 07:52:53;;;;;;;28.02;12.38;;;3.50;94.50;;;;;;5043718;28;20102;-62
2023/03/16 07:55:19;;;;;;;18.98;8.63;;;3.60;93.80;;;;;;5056246;28;20025;-62
2023/03/16 07:57:47;;;;;;;12.30;6.30;;;3.70;93.60;;;;;;5060541;28;20028;-62
2023/03/16 08:00:13;;;;;;;10.75;5.68;;;3.90;93.10;;;;;;5059054;28;20045;-62
2023/03/16 08:02:39;;;;;;;12.63;5.95;;;3.80;92.50;;;;;;5042117;28;20126;-62
2023/03/16 08:05:05;;;;;;;7.60;4.95;;;3.90;92.00;;;;;;5044776;28;20040;-62
2023/03/16 08:07:30;;;;;;;16.38;8.95;;;4.10;92.80;;;;;;5054663;28;20037;-63
2023/03/16 08:09:56;;;;;;;11.38;5.60;;;4.20;91.80;;;;;;5059721;28;20306;-62
2023/03/16 08:12:22;;;;;;;10.25;5.38;;;4.40;90.90;;;;;;5054228;28;20036;-62
2023/03/16 08:14:48;;;;;;;10.30;6.60;;;4.50;90.80;;;;;;5043727;28;20029;-62
2023/03/16 08:17:13;;;;;;;9.82;5.90;;;4.70;90.70;;;;;;5047978;28;20025;-62
2023/03/16 08:19:39;;;;;;;6.88;4.18;;;4.70;89.90;;;;;;5054338;28;20029;-62
2023/03/16 08:22:06;;;;;;;8.70;4.43;;;4.90;89.70;;;;;;5055367;28;20033;-62
2023/03/16 08:24:32;;;;;;;8.75;4.28;;;5.20;88.50;;;;;;5067580;28;20021;-62
2023/03/16 08:26:58;;;;;;;8.68;4.43;;;5.50;87.60;;;;;;5054105;28;20040;-62
2023/03/16 08:29:25;;;;;;;6.28;3.83;;;6.20;85.90;;;;;;5055258;28;20029;-62
2023/03/16 08:31:52;;;;;;;8.32;3.45;;;7.10;83.50;;;;;;5054123;28;20028;-62
2023/03/16 08:34:18;;;;;;;6.25;3.85;;;7.90;81.20;;;;;;5050178;28;20030;-62
2023/03/16 08:36:43;;;;;;;10.60;5.90;;;8.40;78.70;;;;;;5075361;28;20448;-63
2023/03/16 08:39:09;;;;;;;9.57;4.60;;;9.00;78.80;;;;;;5065408;28;20032;-63
2023/03/16 08:41:35;;;;;;;10.18;3.80;;;9.50;75.00;;;;;;5042687;28;20030;-63
2023/03/16 08:44:02;;;;;;;6.22;3.45;;;9.30;76.10;;;;;;5039436;28;20047;-63
2023/03/16 08:46:27;;;;;;;7.20;3.08;;;9.80;75.80;;;;;;5057695;28;20026;-63
2023/03/16 08:48:55;;;;;;;7.95;4.25;;;10.10;74.30;;;;;;5038831;28;20030;-63
2023/03/16 08:51:20;;;;;;;6.70;3.45;;;9.80;74.10;;;;;;5049925;28;20028;-64
2023/03/16 08:53:46;;;;;;;7.90;3.30;;;9.90;74.90;;;;;;5035531;28;20026;-64
2023/03/16 08:56:13;;;;;;;6.18;3.25;;;10.10;73.80;;;;;;5045181;28;20021;-64
2023/03/16 08:58:44;;;;;;;7.45;3.45;;;10.10;74.50;;;;;;5058742;28;20036;-64
2023/03/16 09:01:12;;;;;;;6.82;3.05;;;10.70;73.30;;;;;;5055604;28;20107;-64
2023/03/16 09:03:39;;;;;;;9.70;3.78;;;11.10;72.60;;;;;;5040405;28;20104;-64
2023/03/16 09:06:12;;;;;;;7.68;3.45;;;11.10;72.60;;;;;;5056058;28;20059;-64
2023/03/16 09:08:38;;;;;;;7.90;3.40;;;11.30;70.40;;;;;;5055482;28;20021;-64
2023/03/16 09:11:09;;;;;;;7.18;2.95;;;10.60;72.20;;;;;;5058565;28;20048;-64
2023/03/16 09:13:37;;;;;;;7.97;3.38;;;10.30;71.20;;;;;;5034573;28;20026;-64
2023/03/16 09:16:04;;;;;;;4.57;2.85;;;10.10;72.90;;;;;;5047721;28;20021;-64
2023/03/16 09:18:31;;;;;;;8.35;3.13;;;9.90;72.30;;;;;;5049910;28;20108;-64
2023/03/16 09:21:02;;;;;;;5.85;2.60;;;9.60;74.80;;;;;;5054198;28;20021;-64
2023/03/16 09:23:28;;;;;;;7.15;2.72;;;10.00;73.20;;;;;;5055399;28;20096;-64
2023/03/16 09:25:58;;;;;;;6.07;2.70;;;9.80;72.40;;;;;;5055635;28;20391;-65
2023/03/16 09:28:29;;;;;;;6.82;2.78;;;10.10;74.60;;;;;;5051005;28;20056;-64
2023/03/16 09:30:55;;;;;;;6.35;2.85;;;10.50;72.80;;;;;;5041553;28;20394;-64
2023/03/16 09:33:23;;;;;;;6.53;2.80;;;10.90;72.10;;;;;;5058097;28;20064;-64
2023/03/16 09:35:49;;;;;;;4.85;2.28;;;10.90;73.00;;;;;;5059304;28;20108;-65
2023/03/16 09:38:16;;;;;;;6.00;2.63;;;11.00;71.10;;;;;;5051616;28;20127;-65
2023/03/16 09:40:43;;;;;;;5.00;2.50;;;11.10;70.90;;;;;;5048911;28;20028;-65
2023/03/16 09:43:30;;;;;;;5.03;2.40;;;10.50;70.20;;;;;;5054625;28;20021;-64
2023/03/16 09:46:14;;;;;;;5.57;2.97;;;10.10;70.40;;;;;;5044591;28;20025;-65
2023/03/16 09:48:40;;;;;;;4.57;2.28;;;10.00;70.50;;;;;;5047941;28;20370;-64
2023/03/16 09:51:16;;;;;;;5.53;2.38;;;9.70;71.00;;;;;;5058807;28;20025;-64
2023/03/16 09:53:41;;;;;;;5.22;2.22;;;10.00;71.60;;;;;;5057421;28;20090;-65
2023/03/16 09:56:18;;;;;;;4.75;2.45;;;10.20;70.80;;;;;;5058368;28;20422;-64
2023/03/16 09:58:46;;;;;;;7.13;2.25;;;10.30;70.40;;;;;;5056725;28;20112;-65
2023/03/16 10:01:41;;;;;;;5.95;2.67;;;10.60;70.60;;;;;;5057845;28;20091;-64
2023/03/16 10:04:26;;;;;;;4.88;2.30;;;11.50;69.00;;;;;;5059004;28;20048;-64
2023/03/16 10:07:28;;;;;;;6.47;2.67;;;12.00;67.70;;;;;;5061390;28;20024;-64
2023/03/16 10:10:05;;;;;;;5.85;2.10;;;12.20;68.90;;;;;;5058073;28;20367;-64
2023/03/16 10:12:40;;;;;;;4.95;2.05;;;12.70;67.70;;;;;;5057332;28;20044;-64
2023/03/16 10:15:06;;;;;;;5.40;2.30;;;12.90;66.60;;;;;;5057232;28;20074;-64
2023/03/16 10:17:41;;;;;;;6.25;2.40;;;13.10;65.20;;;;;;5057767;28;20107;-66
2023/03/16 10:20:16;;;;;;;5.00;2.65;;;12.40;64.70;;;;;;5058361;28;20025;-66
2023/03/16 10:22:44;;;;;;;5.07;2.50;;;11.80;66.80;;;;;;5054596;28;20021;-65
2023/03/16 10:25:22;;;;;;;6.07;2.22;;;11.70;68.00;;;;;;5050854;28;20029;-65
2023/03/16 10:27:49;;;;;;;5.60;2.28;;;12.60;67.30;;;;;;5056940;28;20029;-65
2023/03/16 10:30:27;;;;;;;6.00;2.20;;;12.90;66.30;;;;;;5058232;28;20103;-65
2023/03/16 10:32:54;;;;;;;5.63;2.30;;;12.80;66.40;;;;;;5053348;28;20287;-65
2023/03/16 10:35:47;;;;;;;4.78;2.28;;;13.20;66.60;;;;;;5045756;28;20033;-64
2023/03/16 10:38:54;;;;;;;5.68;2.10;;;13.20;65.80;;;;;;5037760;28;20050;-65
2023/03/16 10:41:20;;;;;;;6.00;2.63;;;13.70;66.20;;;;;;5038027;28;20033;-65
2023/03/16 10:44:06;;;;;;;6.75;2.20;;;14.20;64.80;;;;;;5042200;28;20296;-65
2023/03/16 10:46:47;;;;;;;5.78;2.20;;;13.80;62.80;;;;;;5037651;28;20368;-64
2023/03/16 10:49:27;;;;;;;5.82;2.10;;;13.90;62.30;;;;;;5045931;28;20116;-64
2023/03/16 10:51:58;;;;;;;3.83;1.55;;;13.50;60.80;;;;;;5050356;28;20055;-64
2023/03/16 10:54:30;;;;;;;4.30;1.90;;;13.20;59.80;;;;;;5057794;28;20021;-65
2023/03/16 10:56:57;;;;;;;4.63;1.70;;;12.90;62.30;;;;;;5055750;28;20086;-65
2023/03/16 10:59:32;;;;;;;3.85;1.60;;;13.30;63.20;;;;;;5050922;28;20028;-64
2023/03/16 11:01:59;;;;;;;4.43;1.58;;;13.30;60.30;;;;;;5017937;28;20069;-64
2023/03/16 11:04:31;;;;;;;4.80;1.50;;;13.10;59.60;;;;;;5027282;28;20021;-64
2023/03/16 11:06:57;;;;;;;3.38;1.80;;;13.10;59.60;;;;;;5037242;28;20112;-64
2023/03/16 11:09:32;;;;;;;5.68;1.58;;;13.00;60.80;;;;;;5020986;28;20373;-64
2023/03/16 11:11:58;;;;;;;2.90;1.30;;;13.10;60.40;;;;;;5027221;28;20083;-65
2023/03/16 11:14:27;;;;;;;5.03;1.55;;;13.10;59.70;;;;;;5030866;28;20049;-65
2023/03/16 11:16:59;;;;;;;3.25;1.67;;;13.40;59.60;;;;;;5036751;28;20061;-65
2023/03/16 11:19:38;;;;;;;3.15;1.42;;;13.20;58.40;;;;;;5024706;28;20045;-65
2023/03/16 11:22:19;;;;;;;5.03;2.88;;;12.80;59.90;;;;;;5027181;28;20030;-64
2023/03/16 11:25:05;;;;;;;4.10;1.85;;;13.00;60.80;;;;;;5024996;28;20021;-64
2023/03/16 11:28:02;;;;;;;3.58;1.33;;;13.10;58.60;;;;;;5035592;28;20029;-64
2023/03/16 11:30:38;;;;;;;3.35;1.40;;;12.60;59.40;;;;;;5036036;28;20030;-64
2023/03/16 11:33:08;;;;;;;4.32;1.42;;;12.90;60.70;;;;;;5036422;28;20075;-65
2023/03/16 11:35:59;;;;;;;2.65;1.40;;;13.00;58.10;;;;;;5040136;28;20029;-64
2023/03/16 11:38:37;;;;;;;2.92;1.40;;;12.50;59.80;;;;;;5037028;28;20033;-64
2023/03/16 11:41:06;;;;;;;2.65;1.10;;;12.90;60.90;;;;;;5038663;28;20029;-64
2023/03/16 11:43:53;;;;;;;3.88;1.55;;;13.80;62.40;;;;;;5026633;28;20033;-65
2023/03/16 11:46:26;;;;;;;3.67;1.30;;;14.60;58.50;;;;;;5029420;28;20144;-65
2023/03/16 11:49:10;;;;;;;3.40;1.33;;;15.10;58.10;;;;;;5036850;28;20025;-65
2023/03/16 11:52:16;;;;;;;3.65;1.63;;;15.40;57.20;;;;;;5036788;28;20079;-66
2023/03/16 11:55:07;;;;;;;3.75;1.50;;;15.00;55.20;;;;;;5035772;28;20064;-64
2023/03/16 11:57:49;;;;;;;5.03;1.65;;;14.90;56.60;;;;;;5035261;28;20284;-65
2023/03/16 12:00:34;;;;;;;3.75;1.40;;;14.70;56.90;;;;;;5038938;28;20044;-64
2023/03/16 12:03:21;;;;;;;3.13;1.30;;;14.90;58.10;;;;;;5056540;28;20032;-63
2023/03/16 12:06:07;;;;;;;4.63;1.55;;;15.00;58.00;;;;;;5056378;28;20509;-64
2023/03/16 12:08:48;;;;;;;4.20;1.65;;;15.20;57.60;;;;;;5056118;28;20393;-63
2023/03/16 12:11:27;;;;;;;5.13;1.77;;;15.00;56.60;;;;;;5073320;28;20028;-64
2023/03/16 12:14:11;;;;;;;3.95;1.48;;;15.00;58.30;;;;;;5074034;28;20024;-64
2023/03/16 12:16:43;;;;;;;3.58;1.50;;;15.40;57.30;;;;;;5075374;28;20027;-64
2023/03/16 12:19:20;;;;;;;5.05;1.40;;;15.90;56.80;;;;;;5066734;28;20024;-64
2023/03/16 12:22:00;;;;;;;4.68;1.85;;;15.90;53.30;;;;;;5060025;28;20355;-63
2023/03/16 12:24:31;;;;;;;4.05;1.50;;;14.80;52.50;;;;;;5063059;28;20025;-63
2023/03/16 12:26:58;;;;;;;3.35;1.50;;;14.60;56.80;;;;;;5063252;28;20136;-63
2023/03/16 12:30:02;;;;;;;5.22;1.77;;;14.90;58.10;;;;;;5066686;28;20036;-63
2023/03/16 12:32:44;;;;;;;4.95;1.60;;;15.30;57.30;;;;;;5056211;28;20063;-63
2023/03/16 12:35:32;;;;;;;5.50;1.80;;;15.60;56.10;;;;;;5055663;28;20084;-63
2023/03/16 12:38:14;;;;;;;3.88;1.60;;;15.70;53.60;;;;;;5065754;28;20036;-63
2023/03/16 12:41:10;;;;;;;3.60;1.70;;;16.00;56.10;;;;;;5054891;28;20325;-63
2023/03/16 12:43:45;;;;;;;3.40;1.50;;;15.80;53.20;;;;;;5056091;28;20025;-63
2023/03/16 12:46:38;;;;;;;4.18;1.70;;;14.90;54.30;;;;;;5062306;28;20021;-63
2023/03/16 12:49:06;;;;;;;3.90;1.55;;;14.60;57.60;;;;;;5070188;28;20033;-64
2023/03/16 12:51:40;;;;;;;6.13;1.75;;;14.90;56.20;;;;;;5072900;28;20103;-63
2023/03/16 12:54:17;;;;;;;4.07;1.80;;;14.80;56.50;;;;;;5069680;28;20430;-63
2023/03/16 12:56:45;;;;;;;4.90;1.95;;;14.50;56.90;;;;;;5063188;28;20040;-63
2023/03/16 12:59:19;;;;;;;5.20;2.38;;;14.50;57.40;;;;;;5072178;28;20037;-63